Terminal Aerodrome Forecast
Issued by NWS Cleveland, OH

Home | Current Version | Previous Version | Graphics & Text | Print | Product List | Glossary On
Versions: 1 2 3 4 5 6 7 8 9 10 11 12 13 14 15 16 17 18 19 20 21 22 23
000
FTUS41 KCLE 192300
TAFCAK
TAF
KCAK 192329Z 2000/2024 14006KT P6SM SCT250
     FM200800 18006KT 6SM BR SCT250
      TEMPO 2011/2013 4SM BR
     FM201500 21012KT P6SM SCT250
     FM201800 21012G18KT P6SM SCT045 BKN250
     FM202200 21012G18KT P6SM SCT045 BKN120=

USA.gov is the U.S. government's official web portal to all federal, state and local government web resources and services.